createdAt,value
2022-08-17T00:00:43.957Z,6.70
2022-08-17T00:01:53.358Z,9.33
2022-08-17T00:03:00.330Z,8.20
2022-08-17T00:04:10.663Z,9.83
2022-08-17T00:05:15.226Z,7.57
2022-08-17T00:06:20.968Z,8.13
2022-08-17T00:07:22.851Z,9.50
2022-08-17T00:08:30.546Z,8.10
2022-08-17T00:09:32.177Z,8.13
2022-08-17T00:10:35.483Z,9.30
2022-08-17T00:11:41.304Z,8.20
2022-08-17T00:12:44.894Z,8.13
2022-08-17T00:13:52.213Z,10.40
2022-08-17T00:14:58.942Z,8.23
2022-08-17T00:16:07.010Z,11.23
2022-08-17T00:17:09.752Z,8.50
2022-08-17T00:18:58.178Z,8.33
2022-08-17T00:19:35.946Z,7.47
2022-08-17T00:20:37.575Z,7.93
2022-08-17T00:22:29.970Z,10.67
2022-08-17T00:23:06.647Z,8.17
2022-08-17T00:24:09.467Z,10.17
2022-08-17T00:25:15.623Z,9.10
2022-08-17T00:26:44.161Z,14.57
2022-08-17T00:27:42.402Z,8.83
2022-08-17T00:28:44.068Z,9.03
2022-08-17T00:29:48.105Z,8.13
2022-08-17T00:30:53.584Z,10.03
2022-08-17T00:31:56.307Z,8.43
2022-08-17T00:33:15.411Z,7.90
2022-08-17T00:34:19.644Z,13.27
2022-08-17T00:35:23.605Z,8.10
2022-08-17T00:36:29.527Z,10.73
2022-08-17T00:37:31.379Z,11.37
2022-08-17T00:38:34.700Z,11.07
2022-08-17T00:39:36.360Z,10.60
2022-08-17T00:40:44.530Z,8.77
2022-08-17T00:41:47.624Z,9.57
2022-08-17T00:42:49.734Z,13.03
2022-08-17T00:43:55.120Z,9.33
2022-08-17T00:44:58.499Z,7.93
2022-08-17T00:46:03.824Z,9.57
2022-08-17T00:47:05.874Z,8.43
2022-08-17T00:48:23.749Z,8.60
2022-08-17T00:49:31.241Z,10.53
2022-08-17T00:50:34.102Z,9.23
2022-08-17T00:51:42.815Z,11.20
2022-08-17T00:52:51.175Z,12.73
2022-08-17T00:53:59.243Z,7.73
2022-08-17T00:55:01.638Z,9.30
2022-08-17T00:56:08.721Z,9.03
2022-08-17T00:57:17.445Z,14.70
2022-08-17T00:58:35.738Z,10.57
2022-08-17T00:59:47.022Z,8.10
2022-08-17T01:01:12.323Z,10.60
2022-08-17T01:02:23.590Z,8.97
2022-08-17T01:03:27.447Z,8.20
2022-08-17T01:04:31.383Z,7.97
2022-08-17T01:05:38.253Z,10.30
2022-08-17T01:06:46.138Z,8.97
2022-08-17T01:07:50.684Z,8.97
2022-08-17T01:08:57.313Z,9.30
2022-08-17T01:10:04.741Z,10.67
2022-08-17T01:11:07.718Z,8.47
2022-08-17T01:12:11.983Z,12.13
2022-08-17T01:13:14.110Z,10.00
2022-08-17T01:14:16.696Z,9.57
2022-08-17T01:15:18.353Z,11.27
2022-08-17T01:16:25.384Z,9.60
2022-08-17T01:17:28.925Z,12.43
2022-08-17T01:18:33.084Z,14.60
2022-08-17T01:19:39.137Z,9.70
2022-08-17T01:20:48.886Z,8.80
2022-08-17T01:21:55.030Z,12.67
2022-08-17T01:22:59.130Z,11.93
2022-08-17T01:24:01.742Z,8.80
2022-08-17T01:25:08.880Z,8.77
2022-08-17T01:26:10.516Z,9.33
2022-08-17T01:27:15.297Z,9.80
2022-08-17T01:28:33.369Z,9.10
2022-08-17T01:29:46.824Z,9.80
2022-08-17T01:30:58.743Z,8.43
2022-08-17T01:32:05.895Z,10.63
2022-08-17T01:33:11.327Z,8.63
2022-08-17T01:34:16.343Z,8.87
2022-08-17T01:35:17.933Z,14.00
2022-08-17T01:36:20.538Z,9.70
2022-08-17T01:37:29.973Z,8.07
2022-08-17T01:38:34.054Z,9.87
2022-08-17T01:39:38.237Z,11.07
2022-08-17T01:40:47.385Z,8.60
2022-08-17T01:42:06.068Z,9.10
2022-08-17T01:43:11.871Z,9.87
2022-08-17T01:44:15.179Z,9.10
2022-08-17T01:45:22.937Z,11.77
2022-08-17T01:46:27.637Z,9.67
2022-08-17T01:47:30.552Z,8.77
2022-08-17T01:48:36.621Z,8.87
2022-08-17T01:49:39.289Z,9.90
2022-08-17T01:50:44.023Z,9.27
2022-08-17T01:51:46.781Z,8.90
2022-08-17T01:52:54.026Z,8.80
2022-08-17T01:54:01.362Z,10.83
2022-08-17T01:55:04.633Z,13.77
2022-08-17T01:56:10.119Z,13.83
2022-08-17T01:57:11.957Z,9.23
2022-08-17T01:58:14.947Z,9.33
2022-08-17T01:59:18.268Z,8.87
2022-08-17T02:00:21.166Z,14.63
2022-08-17T02:01:26.613Z,10.60
2022-08-17T02:02:31.074Z,10.90
2022-08-17T02:03:34.782Z,13.57
2022-08-17T02:04:37.450Z,10.70
2022-08-17T02:05:39.755Z,10.67
2022-08-17T02:06:52.360Z,9.60
2022-08-17T02:07:59.866Z,9.57
2022-08-17T02:09:05.734Z,8.90
2022-08-17T02:10:16.728Z,8.97
2022-08-17T02:11:23.017Z,11.43
2022-08-17T02:12:39.136Z,10.40
2022-08-17T02:13:42.740Z,9.50
2022-08-17T02:14:44.513Z,9.73
2022-08-17T02:15:47.503Z,8.23
2022-08-17T02:16:49.493Z,8.47
2022-08-17T02:17:54.925Z,12.30
2022-08-17T02:18:56.713Z,9.50
2022-08-17T02:19:59.424Z,9.07
2022-08-17T02:21:01.153Z,9.00
2022-08-17T02:22:03.993Z,8.33
2022-08-17T02:23:08.807Z,9.63
2022-08-17T02:24:16.409Z,9.30
2022-08-17T02:25:20.229Z,8.73
2022-08-17T02:26:25.564Z,12.00
2022-08-17T02:27:28.459Z,9.00
2022-08-17T02:28:31.093Z,10.47
2022-08-17T02:29:32.882Z,8.63
2022-08-17T02:30:59.308Z,10.83
2022-08-17T02:31:58.436Z,8.63
2022-08-17T02:33:04.345Z,12.23
2022-08-17T02:34:08.186Z,8.63
2022-08-17T02:35:11.079Z,12.33
2022-08-17T02:36:13.011Z,9.30
2022-08-17T02:37:17.499Z,10.33
2022-08-17T02:38:19.197Z,9.00
2022-08-17T02:39:23.197Z,7.90
2022-08-17T02:40:35.910Z,12.37
2022-08-17T02:41:40.116Z,14.97
2022-08-17T02:42:43.471Z,11.10
2022-08-17T02:43:46.234Z,8.37
2022-08-17T02:44:48.720Z,9.33
2022-08-17T02:45:51.543Z,11.83
2022-08-17T02:46:54.054Z,9.70
2022-08-17T02:47:56.781Z,10.80
2022-08-17T02:48:58.691Z,8.60
2022-08-17T02:50:01.319Z,11.70
2022-08-17T02:51:02.973Z,8.73
2022-08-17T02:52:09.039Z,11.40
2022-08-17T02:53:10.660Z,11.43
2022-08-17T02:54:40.318Z,9.40
2022-08-17T02:55:40.114Z,8.50
2022-08-17T02:56:42.763Z,11.10
2022-08-17T02:57:44.878Z,8.70
2022-08-17T02:58:48.027Z,9.43
2022-08-17T02:59:49.659Z,9.60
2022-08-17T03:00:52.209Z,10.57
2022-08-17T03:01:53.917Z,12.43
2022-08-17T03:03:02.205Z,15.40
2022-08-17T03:04:04.301Z,9.30
2022-08-17T03:05:07.952Z,12.60
2022-08-17T03:06:10.019Z,10.27
2022-08-17T03:07:12.769Z,8.80
2022-08-17T03:08:15.439Z,9.57
2022-08-17T03:09:18.050Z,12.63
2022-08-17T03:10:21.467Z,8.20
2022-08-17T03:11:25.747Z,9.07
2022-08-17T03:12:32.469Z,9.83
2022-08-17T03:13:35.137Z,10.07
2022-08-17T03:14:41.246Z,13.33
2022-08-17T03:15:46.272Z,9.90
2022-08-17T03:16:47.908Z,9.07
2022-08-17T03:17:51.985Z,11.00
2022-08-17T03:18:54.952Z,12.93
2022-08-17T03:19:58.750Z,9.50
2022-08-17T03:21:01.540Z,9.93
2022-08-17T03:22:35.614Z,10.00
2022-08-17T03:23:29.433Z,8.40
2022-08-17T03:24:32.801Z,12.10
2022-08-17T03:25:37.598Z,10.73
2022-08-17T03:26:42.828Z,10.83
2022-08-17T03:27:44.674Z,12.83
2022-08-17T03:28:51.471Z,8.00
2022-08-17T03:29:53.317Z,9.00
2022-08-17T03:30:55.925Z,8.33
2022-08-17T03:31:57.699Z,8.37
2022-08-17T03:33:02.531Z,8.60
2022-08-17T03:34:04.313Z,9.70
2022-08-17T03:35:07.892Z,9.07
2022-08-17T03:36:11.172Z,8.03
2022-08-17T03:37:12.865Z,9.00
2022-08-17T03:38:17.058Z,8.67
2022-08-17T03:39:19.176Z,8.90
2022-08-17T03:40:55.058Z,10.50
2022-08-17T03:41:44.763Z,8.23
2022-08-17T03:42:47.781Z,13.20
2022-08-17T03:43:49.357Z,8.40
2022-08-17T03:44:53.104Z,9.53
2022-08-17T03:46:27.962Z,9.97
2022-08-17T03:47:54.545Z,9.00
2022-08-17T03:49:14.873Z,8.30
2022-08-17T03:50:36.841Z,10.17
2022-08-17T03:51:56.895Z,9.33
2022-08-17T03:53:17.141Z,10.93
2022-08-17T03:54:37.417Z,7.70
2022-08-17T03:55:57.797Z,6.87
2022-08-17T03:57:06.398Z,10.23
2022-08-17T03:58:08.090Z,8.87
2022-08-17T03:59:20.975Z,7.47
2022-08-17T04:00:25.082Z,7.40
2022-08-17T04:01:26.929Z,7.03
2022-08-17T04:02:31.918Z,7.20
2022-08-17T04:03:33.890Z,8.83
2022-08-17T04:04:36.777Z,9.27
2022-08-17T04:05:38.927Z,7.27
2022-08-17T04:06:46.369Z,8.10
2022-08-17T04:07:49.436Z,8.33
2022-08-17T04:08:54.138Z,8.90
2022-08-17T04:10:00.309Z,7.70
2022-08-17T04:11:03.866Z,7.97
2022-08-17T04:12:08.925Z,7.77
2022-08-17T04:13:12.245Z,11.77
2022-08-17T04:14:14.624Z,9.07
2022-08-17T04:15:19.394Z,8.30
2022-08-17T04:16:24.060Z,10.10
2022-08-17T04:17:30.422Z,8.30
2022-08-17T04:18:33.661Z,7.90
2022-08-17T04:19:37.377Z,8.63
2022-08-17T04:20:39.093Z,12.20
2022-08-17T04:21:45.499Z,8.10
2022-08-17T04:22:58.218Z,11.23
2022-08-17T04:24:00.950Z,8.20
2022-08-17T04:25:06.995Z,8.93
2022-08-17T04:26:09.616Z,10.50
2022-08-17T04:27:32.797Z,11.87
2022-08-17T04:28:35.684Z,18.00
2022-08-17T04:29:55.113Z,8.27
2022-08-17T04:30:58.535Z,14.60
2022-08-17T04:32:02.812Z,8.27
2022-08-17T04:33:08.560Z,8.37
2022-08-17T04:34:10.239Z,9.20
2022-08-17T04:35:12.878Z,12.70
2022-08-17T04:36:15.669Z,9.07
2022-08-17T04:37:18.227Z,8.23
2022-08-17T04:38:22.486Z,12.07
2022-08-17T04:39:26.193Z,10.60
2022-08-17T04:40:47.168Z,10.77
2022-08-17T04:42:07.159Z,13.13
2022-08-17T04:43:13.380Z,11.47
2022-08-17T04:44:36.933Z,11.10
2022-08-17T04:45:55.596Z,17.00
2022-08-17T04:46:59.563Z,10.90
2022-08-17T04:48:01.204Z,12.40
2022-08-17T04:49:07.032Z,13.33
2022-08-17T04:50:09.668Z,9.20
2022-08-17T04:51:15.143Z,12.03
2022-08-17T04:52:29.720Z,12.10
2022-08-17T04:53:41.013Z,7.83
2022-08-17T04:54:43.727Z,8.30
2022-08-17T04:55:46.129Z,8.20
2022-08-17T04:56:48.841Z,12.00
2022-08-17T04:57:50.543Z,12.20
2022-08-17T04:58:57.287Z,9.27
2022-08-17T04:59:59.052Z,7.50
2022-08-17T05:01:01.789Z,13.77
2022-08-17T05:02:03.542Z,7.10
2022-08-17T05:03:06.991Z,7.37
2022-08-17T05:04:21.061Z,7.87
2022-08-17T05:05:37.198Z,10.70
2022-08-17T05:06:39.955Z,6.47
2022-08-17T05:07:41.987Z,11.10
2022-08-17T05:08:44.573Z,9.20
2022-08-17T05:09:46.190Z,6.63
2022-08-17T05:10:50.136Z,8.00
2022-08-17T05:11:51.806Z,6.60
2022-08-17T05:12:59.151Z,7.50
2022-08-17T05:14:03.132Z,10.37
2022-08-17T05:15:05.740Z,7.43
2022-08-17T05:16:09.036Z,10.90
2022-08-17T05:17:11.231Z,13.47
2022-08-17T05:18:14.654Z,11.00
2022-08-17T05:19:16.579Z,11.80
2022-08-17T05:20:19.350Z,8.87
2022-08-17T05:21:23.900Z,12.43
2022-08-17T05:22:26.334Z,7.80
2022-08-17T05:23:42.429Z,8.30
2022-08-17T05:24:53.933Z,9.87
2022-08-17T05:25:58.556Z,8.03
2022-08-17T05:27:06.253Z,6.93
2022-08-17T05:28:10.729Z,5.60
2022-08-17T05:29:16.303Z,8.53
2022-08-17T05:30:18.164Z,6.30
2022-08-17T05:31:20.949Z,7.00
2022-08-17T05:32:39.407Z,8.43
2022-08-17T05:33:46.893Z,10.53
2022-08-17T05:34:48.594Z,6.53
2022-08-17T05:35:53.492Z,7.70
2022-08-17T05:36:57.510Z,9.10
2022-08-17T05:38:00.806Z,9.63
2022-08-17T05:39:03.694Z,11.13
2022-08-17T05:40:07.406Z,7.53
2022-08-17T05:41:10.568Z,9.60
2022-08-17T05:42:12.845Z,12.33
2022-08-17T05:43:19.864Z,7.10
2022-08-17T05:44:23.499Z,8.07
2022-08-17T05:45:54.264Z,10.50
2022-08-17T05:46:53.877Z,10.77
2022-08-17T05:47:55.835Z,10.60
2022-08-17T05:49:02.469Z,7.57
2022-08-17T05:50:09.761Z,8.87
2022-08-17T05:51:42.619Z,9.73
2022-08-17T05:52:50.243Z,11.33
2022-08-17T05:54:01.963Z,7.27
2022-08-17T05:55:17.935Z,7.73
2022-08-17T05:56:36.470Z,15.97
2022-08-17T05:57:57.177Z,10.43
2022-08-17T05:59:13.903Z,11.97
2022-08-17T06:00:20.692Z,9.33
2022-08-17T06:01:34.997Z,14.00
2022-08-17T06:02:48.038Z,10.90
2022-08-17T06:04:01.531Z,13.57
2022-08-17T06:05:17.903Z,10.30
2022-08-17T06:06:31.474Z,6.27
2022-08-17T06:07:42.985Z,7.30
2022-08-17T06:08:51.969Z,12.43
2022-08-17T06:10:01.812Z,12.43
2022-08-17T06:11:15.996Z,8.67
2022-08-17T06:12:37.196Z,11.10
2022-08-17T06:13:53.273Z,11.30
2022-08-17T06:15:10.750Z,9.50
2022-08-17T06:16:25.815Z,11.40
2022-08-17T06:17:37.611Z,9.13
2022-08-17T06:18:45.076Z,7.20
2022-08-17T06:19:52.028Z,7.30
2022-08-17T06:20:58.481Z,12.73
2022-08-17T06:22:02.620Z,7.63
2022-08-17T06:23:12.243Z,9.17
2022-08-17T06:24:28.290Z,10.20
2022-08-17T06:25:35.651Z,13.93
2022-08-17T06:26:43.278Z,6.77
2022-08-17T06:27:53.548Z,13.23
2022-08-17T06:29:00.261Z,6.73
2022-08-17T06:30:09.822Z,11.70
2022-08-17T06:31:27.372Z,13.30
2022-08-17T06:32:31.976Z,11.90
2022-08-17T06:33:36.517Z,15.07
2022-08-17T06:34:40.524Z,14.57
2022-08-17T06:35:52.271Z,9.17
2022-08-17T06:37:07.694Z,11.20
2022-08-17T06:38:37.065Z,11.70
2022-08-17T06:39:48.704Z,10.80
2022-08-17T06:41:04.432Z,15.83
2022-08-17T06:43:04.089Z,10.03
2022-08-17T06:43:51.761Z,14.17
2022-08-17T06:45:03.400Z,12.13
2022-08-17T06:46:11.432Z,14.53
2022-08-17T06:47:28.096Z,19.23
2022-08-17T06:48:38.673Z,14.73
2022-08-17T06:49:49.506Z,10.60
2022-08-17T06:50:59.907Z,22.70
2022-08-17T06:52:12.230Z,15.13
2022-08-17T06:53:41.791Z,13.40
2022-08-17T06:54:53.023Z,13.63
2022-08-17T06:56:01.603Z,16.37
2022-08-17T06:57:14.466Z,14.63
2022-08-17T06:58:22.234Z,11.30
2022-08-17T06:59:54.785Z,15.83
2022-08-17T07:00:59.070Z,13.50
2022-08-17T07:02:05.497Z,10.23
2022-08-17T07:03:20.832Z,14.37
2022-08-17T07:04:26.540Z,13.70
2022-08-17T07:05:43.724Z,13.43
2022-08-17T07:06:53.304Z,10.00
2022-08-17T07:08:01.619Z,13.90
2022-08-17T07:09:08.299Z,10.60
2022-08-17T07:10:10.814Z,11.93
2022-08-17T07:11:17.756Z,16.77
2022-08-17T07:12:24.492Z,12.63
2022-08-17T07:13:39.007Z,12.50
2022-08-17T07:14:51.393Z,12.67
2022-08-17T07:15:59.791Z,9.77
2022-08-17T07:17:10.383Z,15.50
2022-08-17T07:18:13.420Z,13.13
2022-08-17T07:19:17.861Z,14.67
2022-08-17T07:20:22.466Z,17.97
2022-08-17T07:21:40.812Z,12.63
2022-08-17T07:22:57.623Z,19.07
2022-08-17T07:24:26.358Z,11.67
2022-08-17T07:25:34.397Z,11.30
2022-08-17T07:26:38.791Z,15.73
2022-08-17T07:27:47.672Z,12.70
2022-08-17T07:28:49.669Z,21.93
2022-08-17T07:29:56.506Z,19.70
2022-08-17T07:30:58.208Z,20.47
2022-08-17T07:32:00.831Z,12.93
2022-08-17T07:33:13.207Z,13.10
2022-08-17T07:34:16.631Z,16.87
2022-08-17T07:35:23.027Z,12.87
2022-08-17T07:36:29.945Z,14.93
2022-08-17T07:37:33.362Z,14.93
2022-08-17T07:38:36.386Z,13.97
2022-08-17T07:40:15.235Z,12.57
2022-08-17T07:41:03.757Z,10.93
2022-08-17T07:42:05.756Z,12.40
2022-08-17T07:43:21.959Z,16.70
2022-08-17T07:44:26.149Z,13.53
2022-08-17T07:45:46.773Z,12.23
2022-08-17T07:47:11.642Z,16.47
2022-08-17T07:48:21.479Z,13.10
2022-08-17T07:49:36.098Z,11.77
2022-08-17T07:50:37.801Z,13.40
2022-08-17T07:51:55.285Z,14.53
2022-08-17T07:53:16.532Z,13.93
2022-08-17T07:54:23.351Z,14.70
2022-08-17T07:55:28.014Z,14.37
2022-08-17T07:56:41.246Z,13.60
2022-08-17T07:57:43.173Z,15.53
2022-08-17T07:58:48.249Z,13.73
2022-08-17T08:00:32.480Z,17.63
2022-08-17T08:01:39.625Z,17.20
2022-08-17T08:02:47.250Z,16.30
2022-08-17T08:03:49.495Z,19.03
2022-08-17T08:05:06.579Z,15.33
2022-08-17T08:06:20.804Z,19.47
2022-08-17T08:07:26.343Z,17.93
2022-08-17T08:08:33.428Z,14.53
2022-08-17T08:09:42.220Z,14.33
2022-08-17T08:10:57.544Z,15.77
2022-08-17T08:12:00.221Z,15.13
2022-08-17T08:13:12.200Z,15.00
2022-08-17T08:14:28.604Z,19.37
2022-08-17T08:15:36.483Z,18.77
2022-08-17T08:16:38.215Z,17.40
2022-08-17T08:17:53.965Z,23.87
2022-08-17T08:18:58.217Z,18.93
2022-08-17T08:20:51.166Z,15.47
2022-08-17T08:21:43.622Z,14.40
2022-08-17T08:22:58.827Z,15.10
2022-08-17T08:24:17.232Z,18.03
2022-08-17T08:25:33.446Z,20.00
2022-08-17T08:26:43.583Z,14.50
2022-08-17T08:27:56.035Z,15.83
2022-08-17T08:29:09.470Z,14.47
2022-08-17T08:30:15.575Z,17.33
2022-08-17T08:31:27.153Z,15.50
2022-08-17T08:32:45.214Z,19.20
2022-08-17T08:33:57.661Z,15.50
2022-08-17T08:35:06.554Z,19.00
2022-08-17T08:37:12.910Z,16.67
2022-08-17T08:37:57.206Z,15.17
2022-08-17T08:39:06.499Z,18.97
2022-08-17T08:40:30.170Z,17.13
2022-08-17T08:41:42.100Z,16.80
2022-08-17T08:42:50.453Z,20.27
2022-08-17T08:44:12.781Z,16.07
2022-08-17T08:45:20.167Z,17.20
2022-08-17T08:46:36.361Z,18.13
2022-08-17T08:48:05.907Z,15.80
2022-08-17T08:50:01.857Z,15.10
2022-08-17T08:51:05.756Z,17.63
2022-08-17T08:52:23.560Z,16.87
2022-08-17T08:53:34.163Z,14.47
2022-08-17T08:54:46.225Z,17.40
2022-08-17T08:55:55.104Z,17.67
2022-08-17T08:57:29.143Z,18.80
2022-08-17T08:58:41.227Z,17.00
2022-08-17T08:59:58.277Z,25.50
2022-08-17T09:01:04.011Z,16.40
2022-08-17T09:02:20.467Z,32.20
2022-08-17T09:03:52.770Z,25.97
2022-08-17T09:05:15.503Z,17.57
2022-08-17T09:06:41.541Z,18.53
2022-08-17T09:07:51.374Z,16.43
2022-08-17T09:09:14.017Z,21.60
2022-08-17T09:10:25.385Z,19.53
2022-08-17T09:11:35.719Z,21.10
2022-08-17T09:13:10.156Z,17.63
2022-08-17T09:14:21.724Z,24.63
2022-08-17T09:15:27.981Z,17.73
2022-08-17T09:16:33.179Z,17.10
2022-08-17T09:17:40.753Z,16.70
2022-08-17T09:18:59.866Z,23.43
2022-08-17T09:20:28.018Z,17.40
2022-08-17T09:21:47.977Z,18.50
2022-08-17T09:22:55.954Z,16.20
2022-08-17T09:24:05.948Z,23.23
2022-08-17T09:25:12.099Z,25.97
2022-08-17T09:26:26.246Z,17.20
2022-08-17T09:27:49.290Z,24.27
2022-08-17T09:28:52.853Z,22.53
2022-08-17T09:30:00.435Z,20.07
2022-08-17T09:31:07.871Z,24.27
2022-08-17T09:32:18.131Z,18.07
2022-08-17T09:33:23.059Z,18.83
2022-08-17T09:34:34.328Z,18.97
2022-08-17T09:35:43.651Z,23.00
2022-08-17T09:36:56.601Z,21.10
2022-08-17T09:38:14.286Z,21.83
2022-08-17T09:39:24.367Z,20.17
2022-08-17T09:40:31.915Z,21.97
2022-08-17T09:41:48.945Z,18.93
2022-08-17T09:42:57.200Z,19.93
2022-08-17T09:44:03.007Z,17.97
2022-08-17T09:45:16.574Z,18.13
2022-08-17T09:46:24.749Z,26.00
2022-08-17T09:47:32.282Z,17.57
2022-08-17T09:48:39.852Z,14.80
2022-08-17T09:49:49.530Z,18.83
2022-08-17T09:51:04.818Z,21.10
2022-08-17T09:52:18.181Z,16.97
2022-08-17T09:53:20.889Z,18.83
2022-08-17T09:54:44.688Z,25.17
2022-08-17T09:56:01.864Z,20.10
2022-08-17T09:57:29.026Z,15.93
2022-08-17T09:58:47.515Z,16.10
2022-08-17T10:00:08.955Z,23.80
2022-08-17T10:01:24.936Z,20.97
2022-08-17T10:02:54.254Z,16.57
2022-08-17T10:04:30.533Z,16.33
2022-08-17T10:05:38.406Z,17.50
2022-08-17T10:06:50.292Z,27.03
2022-08-17T10:08:01.041Z,18.77
2022-08-17T10:09:11.092Z,24.63
2022-08-17T10:10:19.540Z,24.70
2022-08-17T10:11:48.245Z,24.00
2022-08-17T10:13:00.556Z,18.13
2022-08-17T10:14:36.848Z,24.03
2022-08-17T10:15:42.788Z,18.70
2022-08-17T10:16:55.832Z,24.43
2022-08-17T10:18:18.361Z,18.90
2022-08-17T10:19:31.996Z,27.07
2022-08-17T10:20:39.442Z,18.93
2022-08-17T10:22:14.971Z,19.00
2022-08-17T10:23:48.477Z,19.20
2022-08-17T10:25:22.565Z,19.03
2022-08-17T10:26:28.485Z,28.13
2022-08-17T10:27:57.543Z,20.07
2022-08-17T10:29:02.884Z,20.17
2022-08-17T10:30:08.006Z,24.03
2022-08-17T10:31:34.839Z,20.53
2022-08-17T10:32:41.418Z,19.47
2022-08-17T10:33:57.425Z,18.47
2022-08-17T10:35:36.550Z,20.20
2022-08-17T10:36:49.019Z,19.30
2022-08-17T10:38:29.143Z,28.10
2022-08-17T10:39:57.355Z,24.20
2022-08-17T10:41:07.909Z,22.50
2022-08-17T10:42:30.162Z,20.73
2022-08-17T10:44:38.121Z,45.30
2022-08-17T10:45:26.316Z,24.60
2022-08-17T10:46:40.460Z,25.07
2022-08-17T10:48:04.707Z,22.83
2022-08-17T10:49:26.470Z,19.63
2022-08-17T10:50:58.483Z,18.80
2022-08-17T10:52:03.491Z,20.27
2022-08-17T10:53:05.094Z,23.30
2022-08-17T10:54:28.559Z,20.67
2022-08-17T10:55:32.458Z,20.07
2022-08-17T10:56:43.628Z,18.27
2022-08-17T10:57:47.579Z,19.73
2022-08-17T10:58:53.893Z,20.90
2022-08-17T10:59:57.794Z,18.87
2022-08-17T11:00:59.911Z,18.60
2022-08-17T11:02:16.127Z,19.40
2022-08-17T11:03:22.059Z,20.50
2022-08-17T11:04:39.088Z,21.63
2022-08-17T11:05:53.961Z,19.80
2022-08-17T11:07:06.301Z,19.23
2022-08-17T11:08:36.015Z,21.43
2022-08-17T11:09:56.586Z,20.53
2022-08-17T11:11:35.923Z,19.00
2022-08-17T11:12:50.374Z,23.90
2022-08-17T11:14:08.820Z,22.47
2022-08-17T11:15:26.773Z,24.30
2022-08-17T11:16:47.955Z,21.57
2022-08-17T11:18:10.897Z,24.67
2022-08-17T11:19:49.580Z,21.27
2022-08-17T11:21:44.414Z,24.77
2022-08-17T11:23:10.566Z,25.07
2022-08-17T11:24:17.566Z,24.50
2022-08-17T11:25:26.032Z,22.53
2022-08-17T11:26:32.887Z,23.27
2022-08-17T11:27:35.991Z,32.30
2022-08-17T11:28:48.849Z,28.33
2022-08-17T11:30:02.157Z,30.60
2022-08-17T11:31:23.335Z,23.80
2022-08-17T11:32:47.525Z,21.20
2022-08-17T11:34:07.633Z,24.70
2022-08-17T11:35:32.300Z,24.10
2022-08-17T11:37:02.624Z,24.53
2022-08-17T11:38:25.251Z,24.83
2022-08-17T11:39:55.270Z,29.63
2022-08-17T11:41:13.171Z,29.40
2022-08-17T11:42:29.993Z,26.40
2022-08-17T11:44:10.394Z,28.00
2022-08-17T11:45:33.824Z,23.93
2022-08-17T11:47:09.171Z,26.23
2022-08-17T11:48:37.998Z,27.10
2022-08-17T11:50:17.148Z,27.63
2022-08-17T11:51:34.517Z,25.30
2022-08-17T11:52:39.351Z,32.07
2022-08-17T11:54:31.192Z,30.20
2022-08-17T11:56:05.155Z,26.27
2022-08-17T11:58:00.119Z,29.13
2022-08-17T11:59:02.097Z,26.00
2022-08-17T12:00:10.244Z,25.57
2022-08-17T12:01:56.608Z,27.33
2022-08-17T12:03:22.330Z,27.43
2022-08-17T12:04:30.440Z,26.07
2022-08-17T12:05:34.108Z,34.20
2022-08-17T12:06:49.519Z,29.80
2022-08-17T12:08:01.495Z,26.67
2022-08-17T12:09:11.705Z,26.33
2022-08-17T12:10:16.105Z,26.57
2022-08-17T12:12:11.350Z,26.63
2022-08-17T12:12:53.319Z,29.17
2022-08-17T12:13:58.106Z,32.67
2022-08-17T12:15:11.342Z,29.60
2022-08-17T12:16:17.554Z,28.27
2022-08-17T12:17:39.485Z,34.60
2022-08-17T12:18:51.831Z,28.27
2022-08-17T12:19:54.762Z,37.53
2022-08-17T12:21:15.417Z,29.13
2022-08-17T12:22:25.368Z,28.30
2022-08-17T12:23:36.819Z,28.93
2022-08-17T12:24:51.547Z,35.10
2022-08-17T12:25:58.122Z,30.30
2022-08-17T12:27:06.728Z,31.87
2022-08-17T12:28:23.886Z,31.70
2022-08-17T12:29:35.841Z,32.67
2022-08-17T12:30:42.204Z,28.60
2022-08-17T12:31:47.230Z,29.70
2022-08-17T12:32:49.954Z,28.63
2022-08-17T12:33:52.903Z,29.93
2022-08-17T12:34:55.819Z,33.80
2022-08-17T12:36:00.215Z,37.03
2022-08-17T12:37:15.091Z,31.07
2022-08-17T12:38:26.905Z,31.80
2022-08-17T12:39:35.819Z,31.20
2022-08-17T12:40:37.833Z,30.93
2022-08-17T12:41:43.214Z,32.10
2022-08-17T12:42:56.768Z,31.27
2022-08-17T12:44:02.860Z,32.60
2022-08-17T12:45:07.415Z,31.40
2022-08-17T12:46:17.526Z,34.63
2022-08-17T12:47:23.042Z,30.97
2022-08-17T12:48:26.979Z,35.07
2022-08-17T12:49:32.782Z,35.77
2022-08-17T12:50:35.581Z,33.53
2022-08-17T12:51:38.580Z,31.83
2022-08-17T12:52:43.322Z,33.73
2022-08-17T12:53:53.802Z,29.03
2022-08-17T12:55:00.782Z,30.63
2022-08-17T12:56:09.453Z,32.13
2022-08-17T12:57:15.815Z,32.80
2022-08-17T12:58:21.686Z,39.67
2022-08-17T12:59:30.164Z,38.13
2022-08-17T13:00:35.681Z,38.00
2022-08-17T13:01:41.622Z,38.30
2022-08-17T13:02:48.120Z,33.80
2022-08-17T13:03:54.149Z,35.00
2022-08-17T13:04:59.399Z,35.03
2022-08-17T13:06:08.396Z,33.53
2022-08-17T13:07:10.043Z,32.00
2022-08-17T13:08:15.562Z,36.77
2022-08-17T13:09:22.488Z,36.77
2022-08-17T13:10:38.766Z,39.70
2022-08-17T13:11:48.587Z,36.70
2022-08-17T13:12:52.472Z,38.47
2022-08-17T13:13:56.981Z,41.20
2022-08-17T13:15:00.834Z,39.17
2022-08-17T13:16:05.936Z,42.63
2022-08-17T13:17:13.375Z,37.40
2022-08-17T13:18:41.721Z,41.03
2022-08-17T13:19:50.468Z,37.87
2022-08-17T13:20:53.324Z,36.07
2022-08-17T13:21:59.290Z,34.80
2022-08-17T13:23:09.969Z,42.80
2022-08-17T13:24:17.992Z,37.73
2022-08-17T13:25:20.791Z,39.00
2022-08-17T13:26:29.244Z,36.77
2022-08-17T13:27:33.220Z,37.10
2022-08-17T13:28:36.702Z,40.87
2022-08-17T13:29:51.516Z,41.57
2022-08-17T13:31:32.909Z,40.50
2022-08-17T13:32:39.931Z,48.10
2022-08-17T13:33:46.487Z,49.00
2022-08-17T13:35:13.175Z,50.77
2022-08-17T13:36:28.963Z,43.67
2022-08-17T13:37:34.324Z,47.40
2022-08-17T13:38:45.534Z,41.50
2022-08-17T13:39:48.178Z,51.83
2022-08-17T13:40:53.371Z,47.07
2022-08-17T13:41:56.047Z,47.23
2022-08-17T13:42:59.617Z,45.93
2022-08-17T13:44:01.694Z,50.53
2022-08-17T13:45:35.165Z,46.13
2022-08-17T13:46:40.392Z,48.27
2022-08-17T13:47:43.368Z,47.70
2022-08-17T13:48:46.694Z,46.40
2022-08-17T13:49:49.539Z,51.77
2022-08-17T13:51:19.986Z,47.13
2022-08-17T13:52:37.966Z,49.93
2022-08-17T13:54:09.828Z,48.73
2022-08-17T13:55:17.650Z,48.13
2022-08-17T13:56:37.204Z,47.67
2022-08-17T13:57:46.523Z,51.00
2022-08-17T13:58:54.120Z,47.93
2022-08-17T14:00:09.358Z,52.87
2022-08-17T14:01:30.178Z,51.07
2022-08-17T14:02:34.193Z,53.37
2022-08-17T14:03:36.186Z,47.10
2022-08-17T14:04:41.198Z,49.60
2022-08-17T14:05:45.832Z,54.37
2022-08-17T14:06:53.629Z,45.03
2022-08-17T14:07:58.482Z,48.80
2022-08-17T14:09:03.782Z,47.70
2022-08-17T14:10:10.988Z,43.97
2022-08-17T14:11:12.546Z,48.90
2022-08-17T14:12:18.430Z,44.00
2022-08-17T14:13:20.067Z,52.33
2022-08-17T14:14:24.017Z,46.40
2022-08-17T14:15:56.330Z,45.73
2022-08-17T14:16:49.775Z,48.53
2022-08-17T14:17:54.020Z,47.50
2022-08-17T14:18:57.465Z,52.37
2022-08-17T14:20:00.644Z,45.10
2022-08-17T14:21:02.294Z,46.83
2022-08-17T14:22:08.802Z,45.97
2022-08-17T14:23:11.087Z,44.23
2022-08-17T14:24:20.979Z,46.67
2022-08-17T14:25:26.265Z,48.77
2022-08-17T14:26:28.932Z,45.07
2022-08-17T14:27:33.981Z,45.13
2022-08-17T14:28:54.519Z,46.37
2022-08-17T14:29:59.154Z,45.17
2022-08-17T14:31:01.011Z,44.40
2022-08-17T14:32:09.631Z,45.77
2022-08-17T14:33:14.390Z,45.97
2022-08-17T14:34:17.125Z,46.57
2022-08-17T14:35:23.760Z,52.03
2022-08-17T14:36:26.857Z,41.80
2022-08-17T14:37:29.515Z,44.87
2022-08-17T14:38:32.283Z,44.73
2022-08-17T14:39:33.973Z,44.83
2022-08-17T14:40:37.908Z,46.77
2022-08-17T14:41:41.331Z,63.73
2022-08-17T14:42:45.964Z,41.77
2022-08-17T14:43:47.787Z,43.27
2022-08-17T14:44:51.025Z,46.27
2022-08-17T14:45:52.973Z,43.80
2022-08-17T14:46:55.499Z,45.90
2022-08-17T14:47:57.153Z,49.10
2022-08-17T14:49:02.724Z,45.93
2022-08-17T14:50:06.237Z,45.77
2022-08-17T14:51:11.979Z,45.43
2022-08-17T14:52:15.354Z,41.70
2022-08-17T14:53:20.194Z,52.80
2022-08-17T14:54:33.135Z,44.03
2022-08-17T14:55:39.857Z,45.80
2022-08-17T14:56:42.004Z,44.10
2022-08-17T14:57:48.398Z,46.33
2022-08-17T14:58:51.840Z,44.53
2022-08-17T14:59:56.573Z,44.20
2022-08-17T15:00:59.195Z,46.30
2022-08-17T15:02:01.610Z,53.17
2022-08-17T15:03:04.816Z,47.60
2022-08-17T15:04:08.647Z,47.93
2022-08-17T15:05:11.279Z,62.57
2022-08-17T15:06:14.638Z,43.33
2022-08-17T15:07:20.456Z,39.27
2022-08-17T15:08:28.918Z,43.77